createdAt,value
2022-10-17T00:00:58.869Z,0
2022-10-17T00:03:59.458Z,0
2022-10-17T00:06:58.492Z,0
2022-10-17T00:09:59.239Z,0.3333333333333333
2022-10-17T00:12:58.594Z,0
2022-10-17T00:15:58.363Z,0
2022-10-17T00:18:59.236Z,0
2022-10-17T00:21:59.173Z,0
2022-10-17T00:24:58.162Z,0.6666666666666666
2022-10-17T00:27:58.664Z,0
2022-10-17T00:30:59.034Z,0.3333333333333333
2022-10-17T00:33:59.054Z,0
2022-10-17T00:36:59.119Z,0
2022-10-17T00:39:58.961Z,0
2022-10-17T00:42:58.978Z,0
2022-10-17T00:45:58.978Z,0
2022-10-17T00:48:59.438Z,0
2022-10-17T00:51:58.613Z,0
2022-10-17T00:54:58.689Z,0
2022-10-17T00:57:58.761Z,0
2022-10-17T01:00:59.345Z,0
2022-10-17T01:03:58.823Z,0
2022-10-17T01:06:59.558Z,0
2022-10-17T01:09:59.625Z,0
2022-10-17T01:12:58.554Z,0
2022-10-17T01:15:59.618Z,0.6666666666666666
2022-10-17T01:18:58.619Z,0
2022-10-17T01:21:59.269Z,1.3333333333333333
2022-10-17T01:24:58.629Z,0
2022-10-17T01:27:58.899Z,0
2022-10-17T01:30:58.362Z,0
2022-10-17T01:33:59.568Z,0
2022-10-17T01:36:59.314Z,0
2022-10-17T01:39:58.639Z,0
2022-10-17T01:42:59.088Z,0
2022-10-17T01:45:59.461Z,0
2022-10-17T01:48:59.095Z,0
2022-10-17T01:51:58.646Z,0
2022-10-17T01:54:58.868Z,0
2022-10-17T01:57:59.002Z,0
2022-10-17T02:00:58.387Z,0
2022-10-17T02:03:58.707Z,0
2022-10-17T02:06:58.865Z,0
2022-10-17T02:09:58.736Z,0.6666666666666666
2022-10-17T02:12:58.588Z,0
2022-10-17T02:15:58.923Z,0
2022-10-17T02:18:58.554Z,0
2022-10-17T02:21:59.549Z,0
2022-10-17T02:24:58.590Z,0
2022-10-17T02:27:58.535Z,0
2022-10-17T02:30:59.537Z,0.6666666666666666
2022-10-17T02:33:58.482Z,0
2022-10-17T02:36:58.248Z,0
2022-10-17T02:39:59.373Z,0.3333333333333333
2022-10-17T02:42:58.735Z,0
2022-10-17T02:45:59.221Z,0
2022-10-17T02:48:58.776Z,0
2022-10-17T02:51:58.609Z,0
2022-10-17T02:54:58.391Z,0
2022-10-17T02:57:58.536Z,0
2022-10-17T03:00:59.152Z,0
2022-10-17T03:03:58.260Z,0
2022-10-17T03:06:58.578Z,0
2022-10-17T03:09:59.830Z,0
2022-10-17T03:12:58.570Z,0.3333333333333333
2022-10-17T03:15:58.885Z,0
2022-10-17T03:18:58.855Z,0
2022-10-17T03:21:59.055Z,0
2022-10-17T03:24:58.666Z,0
2022-10-17T03:27:58.722Z,0
2022-10-17T03:30:58.738Z,0
2022-10-17T03:33:58.598Z,0
2022-10-17T03:36:58.481Z,0
2022-10-17T03:39:59.837Z,0
2022-10-17T03:42:59.028Z,0.3333333333333333
2022-10-17T03:45:59.363Z,0
2022-10-17T03:48:58.604Z,0
2022-10-17T03:51:58.439Z,0
2022-10-17T03:54:58.484Z,0
2022-10-17T03:57:59.165Z,0
2022-10-17T04:00:59.421Z,0
2022-10-17T04:03:58.218Z,0
2022-10-17T04:06:58.993Z,0
2022-10-17T04:09:59.314Z,0
2022-10-17T04:12:59.240Z,0
2022-10-17T04:15:58.753Z,0
2022-10-17T04:18:58.871Z,0
2022-10-17T04:21:59.044Z,0
2022-10-17T04:24:58.988Z,0.3333333333333333
2022-10-17T04:27:58.878Z,0
2022-10-17T04:30:59.151Z,0
2022-10-17T04:33:58.951Z,0
2022-10-17T04:36:58.826Z,0
2022-10-17T04:39:58.751Z,0
2022-10-17T04:42:58.708Z,0
2022-10-17T04:45:59.014Z,0
2022-10-17T04:48:58.975Z,0
2022-10-17T04:51:58.582Z,0
2022-10-17T04:54:58.619Z,0.3333333333333333
2022-10-17T04:57:59.159Z,0
2022-10-17T05:01:00.061Z,0
2022-10-17T05:03:59.633Z,0
2022-10-17T05:06:59.647Z,0
2022-10-17T05:09:58.992Z,0
2022-10-17T05:12:59.251Z,0
2022-10-17T05:15:59.144Z,0.3333333333333333
2022-10-17T05:18:59.429Z,0.3333333333333333
2022-10-17T05:21:59.377Z,1.3333333333333333
2022-10-17T05:24:59.114Z,4
2022-10-17T05:27:59.095Z,7.333333333333333
2022-10-17T05:30:59.983Z,13.333333333333334
2022-10-17T05:33:59.003Z,18.666666666666668
2022-10-17T05:36:58.865Z,17
2022-10-17T05:39:59.434Z,19
2022-10-17T05:42:59.071Z,25.333333333333332
2022-10-17T05:45:58.797Z,34.666666666666664
2022-10-17T05:48:58.737Z,41.666666666666664
2022-10-17T05:51:59.637Z,48
2022-10-17T05:54:58.627Z,54
2022-10-17T05:57:59.774Z,64.33333333333333
2022-10-17T06:01:00.551Z,76
2022-10-17T06:03:59.550Z,95.66666666666667
2022-10-17T06:06:59.086Z,116.33333333333333
2022-10-17T06:09:59.394Z,133
2022-10-17T06:12:59.368Z,153.66666666666666
2022-10-17T06:15:59.474Z,169.33333333333334
2022-10-17T06:18:58.651Z,184.66666666666666
2022-10-17T06:21:59.520Z,197
2022-10-17T06:24:59.334Z,207
2022-10-17T06:27:59.171Z,212.66666666666666
2022-10-17T06:30:59.363Z,219.66666666666666
2022-10-17T06:33:58.900Z,229
2022-10-17T06:36:58.486Z,235
2022-10-17T06:39:59.090Z,231.66666666666666
2022-10-17T06:42:58.907Z,224.33333333333334
2022-10-17T06:45:59.049Z,211.66666666666666
2022-10-17T06:48:59.410Z,194
2022-10-17T06:51:58.993Z,174.66666666666666
2022-10-17T06:54:59.198Z,184
2022-10-17T06:57:58.876Z,162
2022-10-17T07:01:01.022Z,162.66666666666666
2022-10-17T07:03:58.596Z,160.33333333333334
2022-10-17T07:09:59.721Z,177.66666666666666
2022-10-17T07:12:58.650Z,169.33333333333334
2022-10-17T07:15:59.651Z,200.66666666666666
2022-10-17T07:18:58.655Z,201
2022-10-17T07:21:58.923Z,204.66666666666666
2022-10-17T07:24:59.584Z,208
2022-10-17T07:27:59.539Z,219.33333333333334
2022-10-17T07:30:59.409Z,229
2022-10-17T07:33:58.525Z,224.33333333333334
2022-10-17T07:36:58.366Z,229.33333333333334
2022-10-17T07:39:59.273Z,245.33333333333334
2022-10-17T07:42:58.473Z,249.33333333333334
2022-10-17T07:45:59.155Z,256.6666666666667
2022-10-17T07:48:58.644Z,263.6666666666667
2022-10-17T07:51:58.431Z,272.3333333333333
2022-10-17T07:54:58.571Z,280.3333333333333
2022-10-17T07:57:58.912Z,289
2022-10-17T08:00:58.925Z,293.6666666666667
2022-10-17T08:03:59.331Z,299.6666666666667
2022-10-17T08:07:11.390Z,305
2022-10-17T08:09:58.972Z,308.3333333333333
2022-10-17T08:12:59.059Z,311.6666666666667
2022-10-17T08:15:58.706Z,317
2022-10-17T08:18:58.859Z,321.3333333333333
2022-10-17T08:21:59.448Z,326
2022-10-17T08:24:58.579Z,329.3333333333333
2022-10-17T08:27:59.283Z,333.3333333333333
2022-10-17T08:30:59.691Z,340.6666666666667
2022-10-17T08:33:59.403Z,348
2022-10-17T08:36:58.794Z,355.6666666666667
2022-10-17T08:39:59.282Z,370
2022-10-17T08:42:58.450Z,380.3333333333333
2022-10-17T08:45:59.195Z,391.3333333333333
2022-10-17T08:48:58.940Z,402.3333333333333
2022-10-17T08:51:59.292Z,411.6666666666667
2022-10-17T08:54:58.386Z,422.3333333333333
2022-10-17T08:57:58.829Z,434.3333333333333
2022-10-17T09:00:58.424Z,452
2022-10-17T09:03:58.950Z,467
2022-10-17T09:06:58.235Z,474
2022-10-17T09:09:58.997Z,485
2022-10-17T09:13:00.886Z,498
2022-10-17T09:15:59.080Z,516
2022-10-17T09:18:59.274Z,533
2022-10-17T09:21:59.200Z,544.6666666666666
2022-10-17T09:24:58.846Z,562.6666666666666
2022-10-17T09:27:59.095Z,596.6666666666666
2022-10-17T09:30:58.838Z,607
2022-10-17T09:33:58.914Z,623
2022-10-17T09:36:58.765Z,623
2022-10-17T09:39:58.946Z,594
2022-10-17T09:42:59.456Z,564
2022-10-17T09:45:59.280Z,566.6666666666666
2022-10-17T09:48:58.964Z,585.6666666666666
2022-10-17T09:51:59.459Z,596
2022-10-17T09:54:59.444Z,631.6666666666666
2022-10-17T09:57:58.382Z,639
2022-10-17T10:00:59.641Z,666
2022-10-17T10:03:58.891Z,671.3333333333334
2022-10-17T10:06:58.277Z,683
2022-10-17T10:09:59.381Z,669.6666666666666
2022-10-17T10:12:58.290Z,658.3333333333334
2022-10-17T10:15:58.692Z,661
2022-10-17T10:18:58.325Z,637
2022-10-17T10:21:58.926Z,651.3333333333334
2022-10-17T10:24:59.021Z,649.6666666666666
2022-10-17T10:28:00.805Z,630
2022-10-17T10:30:58.935Z,635
2022-10-17T10:33:59.896Z,620.3333333333334
2022-10-17T10:36:59.099Z,692.6666666666666
2022-10-17T10:39:58.271Z,721
2022-10-17T10:43:03.996Z,699
2022-10-17T10:45:58.985Z,726.6666666666666
2022-10-17T10:48:59.121Z,743.3333333333334
2022-10-17T10:51:58.574Z,733
2022-10-17T10:54:59.016Z,726
2022-10-17T10:57:58.541Z,706.3333333333334
2022-10-17T11:01:00.540Z,651.3333333333334
2022-10-17T11:04:16.973Z,634.3333333333334
2022-10-17T11:06:58.546Z,617.3333333333334
2022-10-17T11:09:58.647Z,582
2022-10-17T11:12:59.212Z,595
2022-10-17T11:15:58.377Z,587.6666666666666
2022-10-17T11:18:59.105Z,579.6666666666666
2022-10-17T11:21:58.730Z,549
2022-10-17T11:24:58.585Z,533
2022-10-17T11:28:04.469Z,552.3333333333334
2022-10-17T11:30:58.978Z,546
2022-10-17T11:33:59.046Z,543.6666666666666
2022-10-17T11:36:58.432Z,503.6666666666667
2022-10-17T11:39:58.915Z,506.6666666666667
2022-10-17T11:42:59.168Z,493.6666666666667
2022-10-17T11:45:59.384Z,487.3333333333333
2022-10-17T11:48:58.840Z,488.6666666666667
2022-10-17T11:52:00.617Z,486
2022-10-17T11:54:59.126Z,477.6666666666667
2022-10-17T11:57:59.175Z,469.6666666666667
2022-10-17T12:00:58.862Z,457
2022-10-17T12:03:58.865Z,428.3333333333333
2022-10-17T12:06:59.016Z,413
2022-10-17T12:09:59.583Z,419.6666666666667
2022-10-17T12:12:59.112Z,437.3333333333333
2022-10-17T12:15:58.775Z,440.6666666666667
2022-10-17T12:18:58.626Z,441
2022-10-17T12:21:58.689Z,436.6666666666667
2022-10-17T12:24:59.289Z,434.3333333333333
2022-10-17T12:27:58.986Z,432.6666666666667
2022-10-17T12:30:58.817Z,430.6666666666667
2022-10-17T12:33:59.354Z,431.6666666666667
2022-10-17T12:36:58.607Z,420.3333333333333
2022-10-17T12:39:59.274Z,429
2022-10-17T12:42:59.143Z,420.3333333333333
2022-10-17T12:45:59.035Z,427
2022-10-17T12:48:59.402Z,424.6666666666667
2022-10-17T12:51:58.617Z,427
2022-10-17T12:55:11.499Z,426
2022-10-17T12:57:59.116Z,423.6666666666667
2022-10-17T13:01:22.668Z,420.6666666666667
2022-10-17T13:03:58.732Z,415.3333333333333
2022-10-17T13:06:59.728Z,409
2022-10-17T13:09:59.781Z,406
2022-10-17T13:12:59.749Z,393.6666666666667
2022-10-17T13:15:59.185Z,388.6666666666667
2022-10-17T13:18:58.625Z,387
2022-10-17T13:22:02.253Z,386.3333333333333
2022-10-17T13:24:58.756Z,374
2022-10-17T13:27:59.565Z,371
2022-10-17T13:30:59.409Z,357.6666666666667
2022-10-17T13:33:58.769Z,330
2022-10-17T13:36:58.791Z,324
2022-10-17T13:40:06.215Z,324
2022-10-17T13:42:58.796Z,337.6666666666667
2022-10-17T13:46:09.147Z,341.3333333333333
2022-10-17T13:48:59.219Z,330.3333333333333
2022-10-17T13:51:59.181Z,310.6666666666667
2022-10-17T13:54:58.321Z,325
2022-10-17T13:57:59.016Z,310
2022-10-17T14:00:59.288Z,320.6666666666667
2022-10-17T14:04:08.211Z,309.6666666666667
2022-10-17T14:06:59.147Z,316
2022-10-17T14:09:59.059Z,323.3333333333333
2022-10-17T14:12:58.360Z,312
2022-10-17T14:15:59.781Z,313
2022-10-17T14:18:59.420Z,319.3333333333333
2022-10-17T14:21:58.990Z,318.3333333333333
2022-10-17T14:25:02.494Z,311
2022-10-17T14:27:59.237Z,302.3333333333333
2022-10-17T14:30:59.175Z,286.6666666666667
2022-10-17T14:33:58.608Z,293
2022-10-17T14:36:58.953Z,285
2022-10-17T14:39:59.542Z,288.6666666666667
2022-10-17T14:42:58.997Z,286.3333333333333
2022-10-17T14:45:59.796Z,284.3333333333333
2022-10-17T14:48:58.626Z,278.3333333333333
2022-10-17T14:52:07.438Z,269
2022-10-17T14:54:59.317Z,258.6666666666667
2022-10-17T14:57:59.523Z,247.66666666666666
2022-10-17T15:00:59.439Z,237.33333333333334
2022-10-17T15:03:59.135Z,220.33333333333334
2022-10-17T15:06:59.074Z,206
2022-10-17T15:09:59.090Z,195.33333333333334
2022-10-17T15:13:04.636Z,188
2022-10-17T15:15:59.557Z,180.66666666666666
2022-10-17T15:18:59.154Z,172.33333333333334
2022-10-17T15:21:58.636Z,163
2022-10-17T15:24:58.918Z,153.66666666666666
2022-10-17T15:27:58.203Z,145.33333333333334
2022-10-17T15:30:59.701Z,138.33333333333334
2022-10-17T15:33:59.466Z,130.66666666666666
2022-10-17T15:36:59.106Z,123.66666666666667
2022-10-17T15:39:59.781Z,117
2022-10-17T15:42:58.973Z,108.33333333333333
2022-10-17T15:45:59.616Z,102.33333333333333
2022-10-17T15:48:59.435Z,99.66666666666667
2022-10-17T15:51:59.572Z,94.33333333333333
2022-10-17T15:55:01.043Z,93.66666666666667
2022-10-17T15:57:59.486Z,88
2022-10-17T16:00:59.674Z,84
2022-10-17T16:03:59.360Z,77.66666666666667
2022-10-17T16:06:59.316Z,69
2022-10-17T16:09:59.364Z,60
2022-10-17T16:12:59.047Z,51
2022-10-17T16:15:59.876Z,40.666666666666664
2022-10-17T16:18:59.298Z,31.333333333333332
2022-10-17T16:22:00.849Z,23
2022-10-17T16:24:59.115Z,16.333333333333332
2022-10-17T16:27:59.453Z,12.333333333333334
2022-10-17T16:31:00.002Z,8
2022-10-17T16:33:59.151Z,4.666666666666667
2022-10-17T16:36:59.891Z,3
2022-10-17T16:39:59.781Z,2
2022-10-17T16:42:58.990Z,1
2022-10-17T16:46:00.556Z,0
2022-10-17T16:48:59.748Z,0
2022-10-17T16:51:58.815Z,0.3333333333333333
2022-10-17T16:54:58.560Z,0
2022-10-17T16:57:58.868Z,0
2022-10-17T17:01:00.492Z,0
2022-10-17T17:03:59.796Z,0
2022-10-17T17:06:59.447Z,0.6666666666666666
2022-10-17T17:09:59.393Z,0
2022-10-17T17:12:58.656Z,0
2022-10-17T17:15:58.429Z,0
2022-10-17T17:18:59.227Z,0
2022-10-17T17:21:59.351Z,0
2022-10-17T17:24:59.127Z,1.3333333333333333
2022-10-17T17:27:59.365Z,0
2022-10-17T17:30:59.206Z,0
2022-10-17T17:33:59.235Z,0
2022-10-17T17:36:59.426Z,0
2022-10-17T17:39:58.944Z,0
2022-10-17T17:42:58.485Z,0
2022-10-17T17:45:59.499Z,0
2022-10-17T17:48:58.936Z,0
2022-10-17T17:51:58.308Z,0.6666666666666666
2022-10-17T17:54:58.804Z,0
2022-10-17T17:57:59.103Z,1
2022-10-17T18:01:25.923Z,0
2022-10-17T18:03:58.682Z,0.3333333333333333
2022-10-17T18:06:58.871Z,0
2022-10-17T18:09:59.709Z,0
2022-10-17T18:12:59.012Z,0.3333333333333333
2022-10-17T18:15:59.432Z,0
2022-10-17T18:19:02.658Z,0
2022-10-17T18:21:59.051Z,0
2022-10-17T18:24:58.846Z,0
2022-10-17T18:27:58.511Z,0
2022-10-17T18:30:59.519Z,1.3333333333333333
2022-10-17T18:33:58.698Z,0
2022-10-17T18:36:59.263Z,0
2022-10-17T18:39:58.509Z,0
2022-10-17T18:42:58.545Z,0
2022-10-17T18:45:59.143Z,0.6666666666666666
2022-10-17T18:48:58.306Z,0
2022-10-17T18:51:59.787Z,0
2022-10-17T18:54:59.048Z,0.3333333333333333
2022-10-17T18:57:58.717Z,0.3333333333333333
2022-10-17T19:00:59.001Z,0
2022-10-17T19:03:59.201Z,0
2022-10-17T19:06:59.162Z,0
2022-10-17T19:09:58.915Z,0
2022-10-17T19:12:59.754Z,0
2022-10-17T19:15:59.561Z,1.3333333333333333
2022-10-17T19:18:58.947Z,0.3333333333333333
2022-10-17T19:21:59.154Z,0
2022-10-17T19:24:58.601Z,0
2022-10-17T19:27:58.907Z,0.3333333333333333
2022-10-17T19:30:58.907Z,0.3333333333333333
2022-10-17T19:33:59.387Z,0
2022-10-17T19:36:58.577Z,0
2022-10-17T19:39:59.436Z,1.3333333333333333
2022-10-17T19:42:58.792Z,0
2022-10-17T19:45:59.368Z,0
2022-10-17T19:48:58.540Z,0
2022-10-17T19:51:58.629Z,0.3333333333333333
2022-10-17T19:54:59.045Z,0.3333333333333333
2022-10-17T19:57:59.167Z,0.3333333333333333
2022-10-17T20:00:59.401Z,0
2022-10-17T20:03:58.243Z,0.3333333333333333
2022-10-17T20:06:58.843Z,0.6666666666666666
2022-10-17T20:09:59.004Z,0
2022-10-17T20:12:59.361Z,0
2022-10-17T20:15:58.728Z,0.3333333333333333
2022-10-17T20:18:59.789Z,0
2022-10-17T20:21:58.457Z,0.3333333333333333
2022-10-17T20:24:58.838Z,0
2022-10-17T20:27:59.646Z,0
2022-10-17T20:30:59.571Z,0
2022-10-17T20:33:58.805Z,0
2022-10-17T20:36:59.182Z,0
2022-10-17T20:40:22.618Z,1
2022-10-17T20:42:59.001Z,0.3333333333333333
2022-10-17T20:46:04.578Z,0.3333333333333333
2022-10-17T20:48:58.806Z,0
2022-10-17T20:51:59.240Z,0
2022-10-17T20:54:58.332Z,0.3333333333333333
2022-10-17T20:57:59.179Z,0
2022-10-17T21:00:59.225Z,0.3333333333333333
2022-10-17T21:04:02.611Z,0
2022-10-17T21:06:59.392Z,0
2022-10-17T21:10:12.233Z,0
2022-10-17T21:12:59.293Z,0
2022-10-17T21:15:59.053Z,0.6666666666666666
2022-10-17T21:18:58.783Z,0
2022-10-17T21:21:59.158Z,0
2022-10-17T21:24:58.181Z,0
2022-10-17T21:27:58.857Z,0
2022-10-17T21:30:59.707Z,1.3333333333333333
2022-10-17T21:33:58.748Z,0.3333333333333333
2022-10-17T21:36:58.815Z,0
2022-10-17T21:39:59.003Z,0
2022-10-17T21:42:59.557Z,0.3333333333333333
2022-10-17T21:45:58.725Z,0
2022-10-17T21:48:59.163Z,0
2022-10-17T21:51:58.957Z,0
2022-10-17T21:54:58.918Z,0
2022-10-17T21:57:59.243Z,0
2022-10-17T22:00:59.491Z,0.3333333333333333
2022-10-17T22:03:58.300Z,0
2022-10-17T22:06:59.364Z,0
2022-10-17T22:09:58.421Z,0
2022-10-17T22:12:58.382Z,0
2022-10-17T22:15:59.619Z,0
2022-10-17T22:19:03.123Z,0
2022-10-17T22:21:59.292Z,0
2022-10-17T22:24:59.090Z,0
2022-10-17T22:27:59.132Z,0
2022-10-17T22:30:59.107Z,1
2022-10-17T22:33:59.119Z,0
2022-10-17T22:36:58.869Z,0
2022-10-17T22:39:59.041Z,0.3333333333333333
2022-10-17T22:42:59.358Z,0
2022-10-17T22:45:58.663Z,0
2022-10-17T22:48:58.799Z,0
2022-10-17T22:51:58.819Z,0
2022-10-17T22:54:58.837Z,0
2022-10-17T22:57:58.771Z,0.3333333333333333
2022-10-17T23:00:59.306Z,0
2022-10-17T23:03:58.753Z,0
2022-10-17T23:06:58.691Z,0
2022-10-17T23:09:59.519Z,0
2022-10-17T23:12:58.464Z,0
2022-10-17T23:15:59.307Z,0
2022-10-17T23:18:59.226Z,0
2022-10-17T23:21:59.313Z,0
2022-10-17T23:24:58.981Z,0
2022-10-17T23:27:59.184Z,0
2022-10-17T23:31:13.627Z,0
2022-10-17T23:33:58.947Z,0
2022-10-17T23:36:59.017Z,0
2022-10-17T23:39:58.983Z,0
2022-10-17T23:42:59.066Z,0
2022-10-17T23:45:59.844Z,0
2022-10-17T23:48:58.493Z,0
2022-10-17T23:51:59.006Z,0
2022-10-17T23:54:59.326Z,0
2022-10-17T23:57:58.470Z,0
